createdAt,value
2022-09-18T00:00:21.400Z,0.68
2022-09-18T00:02:48.210Z,0.65
2022-09-18T00:05:15.119Z,0.60
2022-09-18T00:07:41.927Z,0.55
2022-09-18T00:10:09.196Z,0.80
2022-09-18T00:12:35.943Z,1.02
2022-09-18T00:15:02.832Z,0.88
2022-09-18T00:17:29.627Z,0.70
2022-09-18T00:19:56.443Z,0.93
2022-09-18T00:22:23.196Z,0.77
2022-09-18T00:24:49.943Z,0.80
2022-09-18T00:27:16.696Z,0.88
2022-09-18T00:29:44.626Z,0.50
2022-09-18T00:32:12.132Z,0.80
2022-09-18T00:34:41.424Z,0.80
2022-09-18T00:37:08.263Z,1.08
2022-09-18T00:39:35.013Z,0.90
2022-09-18T00:42:01.795Z,0.75
2022-09-18T00:44:28.495Z,0.60
2022-09-18T00:46:59.633Z,0.65
2022-09-18T00:49:27.536Z,0.80
2022-09-18T00:51:57.115Z,0.63
2022-09-18T00:54:26.916Z,0.80
2022-09-18T00:56:59.129Z,0.90
2022-09-18T00:59:30.468Z,0.68
2022-09-18T01:01:59.174Z,0.82
2022-09-18T01:04:27.576Z,0.80
2022-09-18T01:07:29.269Z,0.70
2022-09-18T01:10:19.835Z,0.73
2022-09-18T01:13:02.253Z,0.68
2022-09-18T01:16:04.974Z,0.70
2022-09-18T01:18:54.825Z,0.90
2022-09-18T01:21:37.907Z,0.60
2022-09-18T01:24:24.014Z,0.65
2022-09-18T01:27:04.308Z,0.68
2022-09-18T01:29:40.031Z,0.63
2022-09-18T01:32:21.211Z,0.82
2022-09-18T01:35:36.757Z,0.60
2022-09-18T01:38:09.948Z,0.60
2022-09-18T01:40:44.601Z,0.60
2022-09-18T01:43:15.190Z,0.47
2022-09-18T01:45:46.177Z,0.50
2022-09-18T01:48:27.750Z,0.68
2022-09-18T01:51:04.849Z,0.70
2022-09-18T01:53:40.996Z,0.60
2022-09-18T01:56:15.731Z,0.65
2022-09-18T01:58:44.748Z,0.57
2022-09-18T02:01:16.960Z,0.45
2022-09-18T02:03:58.763Z,0.65
2022-09-18T02:06:36.370Z,0.47
2022-09-18T02:09:03.886Z,0.90
2022-09-18T02:11:34.503Z,0.60
2022-09-18T02:14:08.112Z,0.80
2022-09-18T02:17:05.265Z,0.40
2022-09-18T02:19:41.139Z,0.52
2022-09-18T02:24:39.064Z,0.60
2022-09-18T02:27:08.681Z,0.75
2022-09-18T02:29:36.415Z,0.50
2022-09-18T02:32:03.765Z,0.52
2022-09-18T02:34:32.192Z,0.35
2022-09-18T02:37:21.431Z,0.47
2022-09-18T02:39:56.307Z,0.50
2022-09-18T02:42:52.533Z,0.70
2022-09-18T02:45:40.378Z,0.63
2022-09-18T02:48:26.087Z,0.63
2022-09-18T02:51:03.402Z,0.60
2022-09-18T02:54:06.806Z,0.80
2022-09-18T02:56:45.592Z,0.50
2022-09-18T02:59:33.404Z,0.80
2022-09-18T03:02:01.379Z,0.63
2022-09-18T03:04:30.657Z,0.60
2022-09-18T03:07:05.084Z,0.68
2022-09-18T03:09:38.087Z,0.60
2022-09-18T03:12:04.928Z,0.70
2022-09-18T03:14:37.401Z,0.70
2022-09-18T03:17:04.546Z,0.52
2022-09-18T03:19:32.259Z,0.60
2022-09-18T03:22:00.440Z,0.65
2022-09-18T03:24:29.337Z,0.50
2022-09-18T03:26:57.526Z,0.70
2022-09-18T03:29:26.585Z,0.60
2022-09-18T03:31:55.173Z,0.60
2022-09-18T03:34:22.844Z,0.40
2022-09-18T03:36:49.950Z,0.63
2022-09-18T03:39:18.389Z,0.63
2022-09-18T03:41:46.691Z,0.70
2022-09-18T03:44:13.629Z,0.50
2022-09-18T03:46:42.284Z,0.40
2022-09-18T03:49:09.220Z,0.50
2022-09-18T03:51:38.306Z,0.57
2022-09-18T03:54:06.690Z,0.60
2022-09-18T03:56:56.646Z,0.55
2022-09-18T03:59:43.674Z,0.35
2022-09-18T04:02:36.779Z,0.57
2022-09-18T04:05:22.354Z,0.70
2022-09-18T04:08:08.188Z,0.50
2022-09-18T04:11:04.578Z,0.55
2022-09-18T04:13:34.157Z,0.50
2022-09-18T04:16:06.322Z,0.55
2022-09-18T04:18:33.717Z,0.63
2022-09-18T04:21:02.112Z,0.50
2022-09-18T04:23:29.047Z,0.40
2022-09-18T04:25:57.161Z,0.47
2022-09-18T04:28:28.485Z,0.30
2022-09-18T04:30:55.349Z,0.40
2022-09-18T04:33:22.142Z,0.63
2022-09-18T04:35:49.051Z,0.40
2022-09-18T04:38:15.812Z,0.50
2022-09-18T04:40:42.664Z,0.50
2022-09-18T04:43:11.604Z,0.50
2022-09-18T04:45:39.870Z,0.30
2022-09-18T04:48:06.675Z,0.20
2022-09-18T04:50:33.512Z,0.30
2022-09-18T04:53:08.347Z,0.38
2022-09-18T04:55:35.148Z,0.63
2022-09-18T04:58:01.948Z,0.20
2022-09-18T05:00:29.902Z,0.20
2022-09-18T05:02:59.408Z,0.40
2022-09-18T05:05:28.320Z,0.32
2022-09-18T05:08:01.610Z,0.50
2022-09-18T05:10:29.863Z,0.25
2022-09-18T05:12:56.923Z,0.30
2022-09-18T05:15:24.242Z,0.60
2022-09-18T05:18:07.728Z,0.35
2022-09-18T05:20:36.704Z,0.45
2022-09-18T05:23:07.308Z,0.45
2022-09-18T05:25:36.233Z,0.68
2022-09-18T05:28:03.845Z,0.40
2022-09-18T05:30:43.591Z,0.57
2022-09-18T05:33:11.630Z,0.52
2022-09-18T05:35:40.713Z,0.43
2022-09-18T05:38:07.644Z,0.30
2022-09-18T05:40:37.428Z,0.40
2022-09-18T05:43:07.434Z,0.50
2022-09-18T05:45:36.047Z,0.30
2022-09-18T05:48:14.660Z,0.28
2022-09-18T05:50:43.978Z,0.40
2022-09-18T05:53:16.277Z,0.50
2022-09-18T05:56:00.705Z,0.40
2022-09-18T05:58:27.741Z,0.30
2022-09-18T06:01:01.237Z,0.20
2022-09-18T06:03:39.855Z,0.52
2022-09-18T06:06:06.938Z,0.30
2022-09-18T06:08:36.289Z,0.20
2022-09-18T06:11:03.860Z,0.25
2022-09-18T06:13:32.095Z,0.30
2022-09-18T06:15:59.490Z,0.30
2022-09-18T06:18:46.276Z,0.20
2022-09-18T06:21:16.184Z,0.20
2022-09-18T06:23:44.106Z,0.15
2022-09-18T06:26:18.389Z,0.35
2022-09-18T06:28:46.988Z,0.30
2022-09-18T06:31:13.971Z,0.20
2022-09-18T06:33:50.843Z,0.40
2022-09-18T06:36:18.114Z,0.47
2022-09-18T06:39:08.070Z,0.35
2022-09-18T06:41:34.881Z,0.20
2022-09-18T06:44:04.801Z,0.50
2022-09-18T06:46:43.197Z,0.80
2022-09-18T06:49:24.196Z,0.65
2022-09-18T06:51:51.067Z,0.30
2022-09-18T06:54:18.046Z,0.35
2022-09-18T06:56:47.819Z,0.50
2022-09-18T06:59:16.276Z,0.30
2022-09-18T07:01:43.647Z,0.38
2022-09-18T07:04:16.449Z,0.30
2022-09-18T07:06:45.917Z,0.32
2022-09-18T07:09:14.943Z,0.30
2022-09-18T07:11:59.559Z,0.30
2022-09-18T07:14:34.461Z,0.40
2022-09-18T07:17:14.185Z,0.30
2022-09-18T07:19:45.737Z,0.38
2022-09-18T07:22:14.804Z,0.30
2022-09-18T07:24:44.401Z,0.22
2022-09-18T07:27:11.387Z,0.30
2022-09-18T07:29:41.843Z,0.43
2022-09-18T07:32:09.711Z,0.20
2022-09-18T07:34:37.507Z,0.40
2022-09-18T07:37:04.298Z,0.40
2022-09-18T07:39:31.702Z,0.30
2022-09-18T07:45:05.874Z,0.35
2022-09-18T07:47:32.780Z,0.10
2022-09-18T07:50:01.568Z,0.25
2022-09-18T07:52:28.607Z,0.28
2022-09-18T07:54:56.998Z,0.20
2022-09-18T07:57:29.113Z,0.10
2022-09-18T08:00:26.825Z,0.20
2022-09-18T08:03:11.947Z,0.20
2022-09-18T08:05:59.460Z,0.30
2022-09-18T08:08:26.436Z,0.20
2022-09-18T08:11:03.752Z,0.20
2022-09-18T08:13:51.106Z,0.20
2022-09-18T08:16:36.549Z,0.30
2022-09-18T08:19:09.520Z,0.10
2022-09-18T08:21:50.146Z,0.20
2022-09-18T08:24:17.838Z,0.20
2022-09-18T08:26:45.749Z,0.50
2022-09-18T08:29:19.210Z,0.10
2022-09-18T08:32:09.983Z,0.30
2022-09-18T08:34:38.071Z,0.10
2022-09-18T08:37:05.103Z,0.20
2022-09-18T08:39:50.499Z,0.20
2022-09-18T08:42:58.494Z,0.20
2022-09-18T08:45:52.315Z,0.28
2022-09-18T08:48:31.385Z,0.40
2022-09-18T08:51:28.448Z,0.47
2022-09-18T08:54:17.972Z,0.22
2022-09-18T08:57:21.536Z,0.30
2022-09-18T09:00:04.321Z,0.30
2022-09-18T09:02:49.523Z,0.40
2022-09-18T09:05:22.916Z,0.30
2022-09-18T09:08:01.952Z,0.40
2022-09-18T09:10:40.531Z,0.40
2022-09-18T09:13:33.044Z,0.40
2022-09-18T09:16:16.966Z,0.60
2022-09-18T09:19:15.867Z,0.50
2022-09-18T09:21:45.596Z,1.00
2022-09-18T09:24:21.132Z,0.50
2022-09-18T09:27:19.735Z,0.65
2022-09-18T09:30:20.307Z,0.73
2022-09-18T09:33:16.306Z,1.00
2022-09-18T09:36:21.868Z,0.88
2022-09-18T09:39:11.519Z,0.70
2022-09-18T09:42:08.005Z,0.68
2022-09-18T09:44:46.915Z,0.60
2022-09-18T09:47:23.289Z,0.70
2022-09-18T09:50:09.629Z,0.70
2022-09-18T09:52:38.808Z,0.63
2022-09-18T09:55:25.210Z,0.55
2022-09-18T09:58:02.943Z,0.50
2022-09-18T10:00:38.444Z,0.63
2022-09-18T10:03:42.526Z,0.60
2022-09-18T10:06:30.373Z,0.55
2022-09-18T10:09:13.811Z,0.50
2022-09-18T10:11:43.546Z,0.60
2022-09-18T10:14:17.556Z,0.60
2022-09-18T10:16:51.633Z,0.68
2022-09-18T10:19:20.778Z,0.47
2022-09-18T10:21:50.963Z,0.57
2022-09-18T10:24:56.011Z,0.63
2022-09-18T10:27:25.216Z,0.60
2022-09-18T10:29:54.083Z,0.60
2022-09-18T10:32:41.484Z,0.70
2022-09-18T10:35:44.367Z,0.60
2022-09-18T10:38:31.003Z,0.50
2022-09-18T10:41:28.610Z,0.60
2022-09-18T10:43:59.067Z,0.60
2022-09-18T10:46:33.567Z,0.68
2022-09-18T10:49:15.674Z,0.52
2022-09-18T10:51:44.243Z,0.50
2022-09-18T10:54:18.069Z,0.60
2022-09-18T10:57:54.003Z,0.60
2022-09-18T11:00:21.388Z,0.60
2022-09-18T11:02:55.958Z,0.50
2022-09-18T11:05:29.051Z,0.50
2022-09-18T11:07:59.576Z,0.50
2022-09-18T11:10:29.483Z,0.47
2022-09-18T11:12:59.039Z,0.57
2022-09-18T11:15:36.787Z,0.77
2022-09-18T11:18:06.556Z,0.60
2022-09-18T11:20:45.223Z,0.63
2022-09-18T11:23:28.088Z,0.70
2022-09-18T11:26:19.672Z,0.65
2022-09-18T11:29:15.979Z,0.68
2022-09-18T11:31:51.138Z,0.70
2022-09-18T11:34:28.013Z,0.65
2022-09-18T11:37:02.601Z,0.68
2022-09-18T11:39:55.622Z,0.70
2022-09-18T11:42:23.568Z,0.70
2022-09-18T11:44:52.614Z,0.50
2022-09-18T11:47:43.605Z,0.60
2022-09-18T11:50:21.268Z,0.60
2022-09-18T11:52:54.392Z,0.50
2022-09-18T11:55:50.823Z,0.70
2022-09-18T11:58:33.627Z,0.50
2022-09-18T12:01:14.090Z,0.52
2022-09-18T12:04:02.767Z,0.70
2022-09-18T12:06:53.920Z,0.60
2022-09-18T12:09:31.607Z,0.60
2022-09-18T12:12:07.171Z,0.60
2022-09-18T12:14:49.008Z,0.50
2022-09-18T12:17:31.576Z,0.60
2022-09-18T12:20:04.061Z,0.60
2022-09-18T12:22:56.500Z,0.70
2022-09-18T12:25:35.811Z,0.50
2022-09-18T12:28:32.967Z,0.60
2022-09-18T12:31:13.177Z,1.17
2022-09-18T12:34:04.854Z,0.70
2022-09-18T12:36:56.914Z,2.47
2022-09-18T12:39:54.711Z,4.47
2022-09-18T12:42:38.493Z,2.22
2022-09-18T12:45:30.267Z,2.72
2022-09-18T12:47:57.475Z,2.17
2022-09-18T12:50:37.078Z,9.45
2022-09-18T12:53:15.849Z,3.75
2022-09-18T12:55:58.622Z,1.83
2022-09-18T12:58:56.599Z,0.90
2022-09-18T13:01:42.280Z,0.77
2022-09-18T13:04:20.959Z,0.70
2022-09-18T13:07:12.223Z,0.60
2022-09-18T13:09:50.492Z,0.70
2022-09-18T13:12:30.197Z,0.70
2022-09-18T13:15:15.019Z,0.80
2022-09-18T13:17:48.828Z,0.60
2022-09-18T13:20:25.690Z,0.70
2022-09-18T13:22:54.078Z,0.63
2022-09-18T13:25:37.903Z,0.50
2022-09-18T13:28:11.816Z,0.57
2022-09-18T13:30:39.050Z,0.60
2022-09-18T13:33:06.102Z,0.77
2022-09-18T13:35:35.208Z,0.80
2022-09-18T13:38:07.267Z,0.57
2022-09-18T13:40:37.467Z,0.80
2022-09-18T13:44:05.882Z,0.60
2022-09-18T13:46:39.694Z,0.47
2022-09-18T13:49:19.348Z,0.68
2022-09-18T13:51:46.645Z,0.70
2022-09-18T13:54:28.800Z,0.70
2022-09-18T13:57:05.034Z,0.80
2022-09-18T13:59:55.787Z,0.65
2022-09-18T14:02:31.004Z,0.65
2022-09-18T14:05:03.112Z,0.50
2022-09-18T14:07:32.873Z,0.63
2022-09-18T14:10:37.465Z,0.90
2022-09-18T14:13:10.093Z,0.60
2022-09-18T14:15:37.418Z,0.73
2022-09-18T14:18:14.891Z,0.63
2022-09-18T14:20:52.303Z,0.80
2022-09-18T14:23:34.516Z,0.70
2022-09-18T14:26:02.444Z,0.80
2022-09-18T14:28:29.613Z,0.70
2022-09-18T14:31:17.867Z,0.70
2022-09-18T14:33:45.182Z,0.60
2022-09-18T14:36:14.782Z,0.90
2022-09-18T14:38:41.854Z,0.70
2022-09-18T14:41:19.226Z,0.77
2022-09-18T14:44:00.237Z,0.90
2022-09-18T14:46:28.069Z,0.95
2022-09-18T14:48:55.958Z,0.80
2022-09-18T14:51:28.835Z,0.77
2022-09-18T14:53:57.951Z,1.02
2022-09-18T14:56:32.595Z,0.85
2022-09-18T14:59:03.602Z,0.63
2022-09-18T15:01:32.786Z,0.80
2022-09-18T15:04:03.317Z,1.10
2022-09-18T15:06:45.386Z,1.50
2022-09-18T15:09:16.548Z,1.90
2022-09-18T15:12:01.786Z,1.70
2022-09-18T15:14:43.035Z,1.40
2022-09-18T15:17:23.486Z,1.30
2022-09-18T15:20:13.987Z,0.93
2022-09-18T15:22:41.199Z,1.00
2022-09-18T15:25:19.712Z,0.90
2022-09-18T15:27:46.932Z,0.88
2022-09-18T15:30:19.903Z,1.10
2022-09-18T15:32:55.008Z,0.82
2022-09-18T15:35:26.123Z,0.80
2022-09-18T15:38:03.053Z,0.77
2022-09-18T15:40:36.248Z,1.05
2022-09-18T15:43:27.000Z,1.00
2022-09-18T15:46:12.355Z,0.85
2022-09-18T15:48:39.255Z,0.93
2022-09-18T15:51:28.149Z,0.98
2022-09-18T15:54:13.327Z,0.80
2022-09-18T15:56:50.847Z,0.82
2022-09-18T15:59:37.016Z,1.05
2022-09-18T16:02:19.740Z,1.10
2022-09-18T16:04:46.734Z,0.90
2022-09-18T16:07:23.709Z,0.90
2022-09-18T16:09:51.112Z,0.95
2022-09-18T16:12:30.119Z,1.08
2022-09-18T16:15:00.017Z,0.75
2022-09-18T16:17:31.912Z,1.02
2022-09-18T16:20:20.345Z,1.63
2022-09-18T16:22:48.761Z,1.80
2022-09-18T16:25:26.678Z,1.25
2022-09-18T16:27:56.531Z,0.88
2022-09-18T16:30:25.082Z,0.80
2022-09-18T16:33:02.486Z,1.10
2022-09-18T16:35:29.334Z,0.90
2022-09-18T16:37:56.223Z,1.02
2022-09-18T16:40:27.682Z,1.10
2022-09-18T16:42:58.491Z,0.68
2022-09-18T16:45:27.042Z,0.80
2022-09-18T16:47:59.844Z,0.60
2022-09-18T16:50:27.561Z,0.87
2022-09-18T16:52:55.902Z,0.60
2022-09-18T16:55:25.562Z,0.80
2022-09-18T16:57:53.195Z,0.90
2022-09-18T17:00:20.188Z,0.85
2022-09-18T17:02:47.093Z,0.88
2022-09-18T17:05:14.047Z,0.75
2022-09-18T17:07:43.050Z,0.77
2022-09-18T17:10:14.437Z,0.70
2022-09-18T17:12:41.862Z,0.80
2022-09-18T17:15:09.488Z,1.10
2022-09-18T17:17:36.856Z,0.70
2022-09-18T17:20:05.195Z,0.80
2022-09-18T17:22:33.141Z,1.00
2022-09-18T17:25:00.652Z,0.90
2022-09-18T17:27:27.499Z,0.70
2022-09-18T17:29:54.345Z,0.98
2022-09-18T17:32:21.174Z,0.80
2022-09-18T17:34:47.990Z,0.80
2022-09-18T17:37:14.825Z,0.90
2022-09-18T17:39:42.148Z,1.35
2022-09-18T17:42:09.210Z,1.05
2022-09-18T17:44:37.089Z,1.35
2022-09-18T17:47:04.704Z,1.88
2022-09-18T17:49:32.739Z,2.05
2022-09-18T17:52:00.303Z,2.38
2022-09-18T17:54:28.080Z,2.40
2022-09-18T17:56:55.898Z,2.38
2022-09-18T17:59:23.008Z,1.85
2022-09-18T18:01:50.585Z,2.15
2022-09-18T18:04:17.937Z,1.60
2022-09-18T18:06:47.994Z,1.27
2022-09-18T18:09:15.527Z,1.20
2022-09-18T18:11:44.338Z,1.55
2022-09-18T18:14:11.340Z,1.60
2022-09-18T18:16:41.357Z,1.60
2022-09-18T18:19:12.249Z,1.20
2022-09-18T18:21:41.565Z,1.08
2022-09-18T18:24:12.167Z,1.20
2022-09-18T18:26:40.005Z,1.00
2022-09-18T18:29:10.944Z,0.90
2022-09-18T18:31:39.733Z,1.10
2022-09-18T18:34:11.072Z,0.90
2022-09-18T18:36:39.875Z,1.00
2022-09-18T18:39:11.905Z,0.85
2022-09-18T18:41:39.608Z,1.02
2022-09-18T18:44:07.174Z,1.00
2022-09-18T18:46:36.119Z,1.10
2022-09-18T18:49:09.390Z,1.30
2022-09-18T18:51:47.315Z,1.23
2022-09-18T18:54:16.898Z,1.05
2022-09-18T18:56:44.619Z,1.45
2022-09-18T18:59:15.315Z,1.50
2022-09-18T19:01:43.454Z,1.63
2022-09-18T19:04:12.954Z,1.67
2022-09-18T19:06:41.964Z,1.40
2022-09-18T19:09:10.705Z,1.60
2022-09-18T19:11:42.886Z,1.20
2022-09-18T19:14:14.320Z,1.30
2022-09-18T19:16:41.553Z,1.02
2022-09-18T19:19:13.029Z,1.27
2022-09-18T19:21:40.307Z,1.02
2022-09-18T19:24:08.856Z,1.15
2022-09-18T19:26:36.832Z,1.25
2022-09-18T19:29:07.746Z,0.85
2022-09-18T19:31:37.249Z,0.90
2022-09-18T19:34:04.923Z,1.08
2022-09-18T19:36:32.324Z,0.93
2022-09-18T19:39:04.140Z,0.85
2022-09-18T19:41:43.331Z,0.82
2022-09-18T19:44:34.442Z,0.80
2022-09-18T19:47:07.480Z,1.00
2022-09-18T19:49:38.170Z,1.30
2022-09-18T19:52:17.960Z,0.90
2022-09-18T19:54:46.182Z,1.00
2022-09-18T19:57:13.459Z,0.60
2022-09-18T19:59:40.360Z,0.40
2022-09-18T20:02:08.863Z,0.47
2022-09-18T20:04:40.344Z,0.20
2022-09-18T20:07:08.757Z,0.30
2022-09-18T20:09:36.321Z,0.20
2022-09-18T20:12:04.178Z,0.20
2022-09-18T20:14:31.454Z,0.20
2022-09-18T20:16:58.970Z,0.10
2022-09-18T20:19:26.132Z,0.30
2022-09-18T20:21:53.686Z,0.40
2022-09-18T20:24:20.790Z,0.20
2022-09-18T20:26:47.770Z,0.20
2022-09-18T20:29:16.178Z,0.10
2022-09-18T20:31:44.608Z,0.20
2022-09-18T20:34:11.919Z,0.10
2022-09-18T20:36:38.848Z,0.20
2022-09-18T20:39:05.858Z,0.30
2022-09-18T20:41:32.871Z,0.20
2022-09-18T20:44:03.201Z,0.20
2022-09-18T20:46:34.039Z,0.15
2022-09-18T20:49:03.448Z,0.20
2022-09-18T20:51:34.872Z,0.20
2022-09-18T20:54:03.945Z,0.30
2022-09-18T20:56:33.797Z,0.38
2022-09-18T20:59:04.834Z,0.30
2022-09-18T21:01:35.617Z,0.28
2022-09-18T21:04:02.835Z,0.40
2022-09-18T21:06:33.390Z,0.30
2022-09-18T21:09:06.194Z,0.40
2022-09-18T21:11:36.970Z,0.40
2022-09-18T21:14:05.464Z,0.30
2022-09-18T21:16:42.915Z,0.47
2022-09-18T21:19:16.124Z,0.40
2022-09-18T21:21:43.098Z,0.40
2022-09-18T21:24:09.977Z,0.38
2022-09-18T21:26:45.943Z,0.50
2022-09-18T21:29:14.150Z,0.35
2022-09-18T21:31:42.638Z,0.25
2022-09-18T21:34:12.300Z,0.20
2022-09-18T21:36:41.480Z,0.28
2022-09-18T21:39:09.770Z,0.30
2022-09-18T21:41:39.461Z,0.30
2022-09-18T21:44:09.956Z,0.20
2022-09-18T21:46:38.495Z,0.20
2022-09-18T21:49:07.962Z,0.22
2022-09-18T21:51:36.108Z,0.30
2022-09-18T21:54:05.569Z,0.30
2022-09-18T21:56:33.649Z,0.40
2022-09-18T21:59:00.975Z,0.30
2022-09-18T22:01:33.438Z,0.20
2022-09-18T22:04:02.217Z,0.25
2022-09-18T22:06:35.832Z,0.50
2022-09-18T22:09:16.788Z,0.30
2022-09-18T22:11:44.894Z,0.40
2022-09-18T22:14:19.128Z,0.20
2022-09-18T22:16:48.223Z,0.38
2022-09-18T22:19:16.787Z,0.30
2022-09-18T22:21:45.914Z,0.30
2022-09-18T22:24:15.899Z,0.20
2022-09-18T22:26:45.502Z,0.20
2022-09-18T22:29:19.111Z,0.30
2022-09-18T22:31:46.762Z,0.25
2022-09-18T22:34:19.364Z,0.30
2022-09-18T22:36:47.261Z,0.43
2022-09-18T22:39:15.789Z,0.30
2022-09-18T22:41:43.434Z,0.30
2022-09-18T22:44:11.051Z,0.45
2022-09-18T22:46:40.027Z,0.38
2022-09-18T22:49:08.771Z,0.45
2022-09-18T22:51:35.950Z,0.60
2022-09-18T22:54:07.694Z,0.40
2022-09-18T22:56:40.325Z,0.43
2022-09-18T22:59:07.580Z,0.40
2022-09-18T23:01:46.039Z,0.40
2022-09-18T23:04:13.452Z,0.28
2022-09-18T23:06:40.494Z,0.20
2022-09-18T23:09:07.598Z,0.30
2022-09-18T23:11:35.600Z,0.25
2022-09-18T23:14:07.319Z,0.20
2022-09-18T23:16:35.691Z,0.20
2022-09-18T23:19:05.182Z,0.20
2022-09-18T23:21:34.278Z,0.30
2022-09-18T23:24:05.941Z,0.20
2022-09-18T23:26:38.515Z,0.20
2022-09-18T23:29:08.301Z,0.30
2022-09-18T23:31:37.832Z,0.22
2022-09-18T23:34:07.657Z,0.20
2022-09-18T23:36:37.506Z,0.20
2022-09-18T23:39:07.386Z,0.20
2022-09-18T23:41:34.416Z,0.30
2022-09-18T23:44:02.608Z,0.20
2022-09-18T23:46:29.828Z,0.20
2022-09-18T23:48:57.482Z,0.20
2022-09-18T23:51:27.187Z,0.20
2022-09-18T23:53:55.879Z,0.20
2022-09-18T23:56:26.750Z,0.30
2022-09-18T23:58:55.235Z,0.10
